sensor_id;sensor_type;location;lat;lon;timestamp;P1;durP1;ratioP1;P2;durP2;ratioP2
5674;SDS011;2860;54.284;10.158;2023-07-13T00:00:12;4.15;;;2.90;;
5674;SDS011;2860;54.284;10.158;2023-07-13T00:02:41;5.72;;;2.60;;
5674;SDS011;2860;54.284;10.158;2023-07-13T00:05:07;4.75;;;2.88;;
5674;SDS011;2860;54.284;10.158;2023-07-13T00:07:34;7.07;;;2.65;;
5674;SDS011;2860;54.284;10.158;2023-07-13T00:10:00;4.57;;;2.90;;
5674;SDS011;2860;54.284;10.158;2023-07-13T00:12:35;7.70;;;3.13;;
5674;SDS011;2860;54.284;10.158;2023-07-13T00:15:04;6.68;;;4.68;;
5674;SDS011;2860;54.284;10.158;2023-07-13T00:17:32;6.47;;;3.75;;
5674;SDS011;2860;54.284;10.158;2023-07-13T00:19:58;4.13;;;3.08;;
5674;SDS011;2860;54.284;10.158;2023-07-13T00:22:24;4.20;;;3.53;;
5674;SDS011;2860;54.284;10.158;2023-07-13T00:24:53;13.73;;;3.35;;
5674;SDS011;2860;54.284;10.158;2023-07-13T00:27:22;3.25;;;2.97;;
5674;SDS011;2860;54.284;10.158;2023-07-13T00:29:48;4.43;;;3.15;;
5674;SDS011;2860;54.284;10.158;2023-07-13T00:32:14;8.07;;;3.40;;
5674;SDS011;2860;54.284;10.158;2023-07-13T00:34:40;3.38;;;3.20;;
5674;SDS011;2860;54.284;10.158;2023-07-13T00:37:06;8.43;;;3.10;;
5674;SDS011;2860;54.284;10.158;2023-07-13T00:39:35;3.15;;;2.95;;
5674;SDS011;2860;54.284;10.158;2023-07-13T00:42:01;5.10;;;2.90;;
5674;SDS011;2860;54.284;10.158;2023-07-13T00:44:27;3.83;;;2.78;;
5674;SDS011;2860;54.284;10.158;2023-07-13T00:46:53;8.98;;;3.10;;
5674;SDS011;2860;54.284;10.158;2023-07-13T00:49:21;3.17;;;2.85;;
5674;SDS011;2860;54.284;10.158;2023-07-13T00:51:49;2.78;;;2.65;;
5674;SDS011;2860;54.284;10.158;2023-07-13T00:54:20;8.07;;;3.25;;
5674;SDS011;2860;54.284;10.158;2023-07-13T00:56:49;10.40;;;2.97;;
5674;SDS011;2860;54.284;10.158;2023-07-13T00:59:16;4.18;;;2.78;;
5674;SDS011;2860;54.284;10.158;2023-07-13T01:01:43;3.88;;;2.75;;
5674;SDS011;2860;54.284;10.158;2023-07-13T01:04:09;3.42;;;3.10;;
5674;SDS011;2860;54.284;10.158;2023-07-13T01:06:36;7.88;;;3.63;;
5674;SDS011;2860;54.284;10.158;2023-07-13T01:09:03;7.75;;;3.65;;
5674;SDS011;2860;54.284;10.158;2023-07-13T01:11:29;5.07;;;3.08;;
5674;SDS011;2860;54.284;10.158;2023-07-13T01:13:55;6.25;;;3.15;;
5674;SDS011;2860;54.284;10.158;2023-07-13T01:16:27;2.90;;;2.80;;
5674;SDS011;2860;54.284;10.158;2023-07-13T01:18:55;3.30;;;2.70;;
5674;SDS011;2860;54.284;10.158;2023-07-13T01:21:24;3.45;;;3.25;;
5674;SDS011;2860;54.284;10.158;2023-07-13T01:23:50;3.55;;;3.35;;
5674;SDS011;2860;54.284;10.158;2023-07-13T01:26:16;3.95;;;3.65;;
5674;SDS011;2860;54.284;10.158;2023-07-13T01:28:42;6.95;;;4.05;;
5674;SDS011;2860;54.284;10.158;2023-07-13T01:31:08;10.15;;;3.92;;
5674;SDS011;2860;54.284;10.158;2023-07-13T01:33:36;3.85;;;3.47;;
5674;SDS011;2860;54.284;10.158;2023-07-13T01:36:04;10.15;;;4.40;;
5674;SDS011;2860;54.284;10.158;2023-07-13T01:38:31;5.32;;;4.90;;
5674;SDS011;2860;54.284;10.158;2023-07-13T01:40:59;5.15;;;4.25;;
5674;SDS011;2860;54.284;10.158;2023-07-13T01:43:24;8.80;;;3.88;;
5674;SDS011;2860;54.284;10.158;2023-07-13T01:45:50;4.47;;;4.18;;
5674;SDS011;2860;54.284;10.158;2023-07-13T01:48:15;4.88;;;3.63;;
5674;SDS011;2860;54.284;10.158;2023-07-13T01:50:41;7.95;;;3.83;;
5674;SDS011;2860;54.284;10.158;2023-07-13T01:53:07;4.72;;;4.47;;
5674;SDS011;2860;54.284;10.158;2023-07-13T01:55:33;6.97;;;4.30;;
5674;SDS011;2860;54.284;10.158;2023-07-13T01:57:59;4.43;;;4.03;;
5674;SDS011;2860;54.284;10.158;2023-07-13T02:00:25;5.88;;;3.65;;
5674;SDS011;2860;54.284;10.158;2023-07-13T02:02:51;5.68;;;3.95;;
5674;SDS011;2860;54.284;10.158;2023-07-13T02:05:16;4.90;;;4.30;;
5674;SDS011;2860;54.284;10.158;2023-07-13T02:07:42;4.38;;;4.07;;
5674;SDS011;2860;54.284;10.158;2023-07-13T02:10:08;4.82;;;4.40;;
5674;SDS011;2860;54.284;10.158;2023-07-13T02:12:35;5.50;;;3.90;;
5674;SDS011;2860;54.284;10.158;2023-07-13T02:15:01;5.97;;;4.43;;
5674;SDS011;2860;54.284;10.158;2023-07-13T02:17:27;4.70;;;3.85;;
5674;SDS011;2860;54.284;10.158;2023-07-13T02:19:53;5.70;;;5.00;;
5674;SDS011;2860;54.284;10.158;2023-07-13T02:22:19;3.95;;;3.70;;
5674;SDS011;2860;54.284;10.158;2023-07-13T02:24:45;6.65;;;4.15;;
5674;SDS011;2860;54.284;10.158;2023-07-13T02:27:10;4.93;;;3.63;;
5674;SDS011;2860;54.284;10.158;2023-07-13T02:29:36;3.60;;;3.40;;
5674;SDS011;2860;54.284;10.158;2023-07-13T02:32:02;3.95;;;3.60;;
5674;SDS011;2860;54.284;10.158;2023-07-13T02:34:28;4.40;;;3.88;;
5674;SDS011;2860;54.284;10.158;2023-07-13T02:36:53;4.40;;;4.00;;
5674;SDS011;2860;54.284;10.158;2023-07-13T02:39:19;5.32;;;4.70;;
5674;SDS011;2860;54.284;10.158;2023-07-13T02:41:44;4.47;;;4.07;;
5674;SDS011;2860;54.284;10.158;2023-07-13T02:44:12;4.38;;;4.03;;
5674;SDS011;2860;54.284;10.158;2023-07-13T02:46:38;6.07;;;3.97;;
5674;SDS011;2860;54.284;10.158;2023-07-13T02:49:04;3.80;;;3.50;;
5674;SDS011;2860;54.284;10.158;2023-07-13T02:51:30;4.30;;;4.03;;
5674;SDS011;2860;54.284;10.158;2023-07-13T02:53:58;3.80;;;3.60;;
5674;SDS011;2860;54.284;10.158;2023-07-13T02:56:24;3.85;;;3.67;;
5674;SDS011;2860;54.284;10.158;2023-07-13T02:58:51;3.75;;;3.55;;
5674;SDS011;2860;54.284;10.158;2023-07-13T03:01:17;7.47;;;3.65;;
5674;SDS011;2860;54.284;10.158;2023-07-13T03:03:43;4.03;;;3.70;;
5674;SDS011;2860;54.284;10.158;2023-07-13T03:06:10;5.20;;;3.00;;
5674;SDS011;2860;54.284;10.158;2023-07-13T03:08:36;4.25;;;3.95;;
5674;SDS011;2860;54.284;10.158;2023-07-13T03:11:03;4.25;;;3.83;;
5674;SDS011;2860;54.284;10.158;2023-07-13T03:13:30;4.60;;;4.18;;
5674;SDS011;2860;54.284;10.158;2023-07-13T03:15:56;9.00;;;4.10;;
5674;SDS011;2860;54.284;10.158;2023-07-13T03:18:22;4.63;;;4.22;;
5674;SDS011;2860;54.284;10.158;2023-07-13T03:20:50;8.90;;;4.95;;
5674;SDS011;2860;54.284;10.158;2023-07-13T03:23:17;4.47;;;4.18;;
5674;SDS011;2860;54.284;10.158;2023-07-13T03:25:43;4.95;;;4.45;;
5674;SDS011;2860;54.284;10.158;2023-07-13T03:28:09;5.82;;;5.32;;
5674;SDS011;2860;54.284;10.158;2023-07-13T03:30:36;7.88;;;5.68;;
5674;SDS011;2860;54.284;10.158;2023-07-13T03:33:01;5.07;;;4.68;;
5674;SDS011;2860;54.284;10.158;2023-07-13T03:35:27;5.78;;;5.25;;
5674;SDS011;2860;54.284;10.158;2023-07-13T03:37:53;5.13;;;4.72;;
5674;SDS011;2860;54.284;10.158;2023-07-13T03:40:18;6.38;;;5.28;;
5674;SDS011;2860;54.284;10.158;2023-07-13T03:42:44;7.15;;;5.65;;
5674;SDS011;2860;54.284;10.158;2023-07-13T03:45:09;6.00;;;5.35;;
5674;SDS011;2860;54.284;10.158;2023-07-13T03:47:35;8.65;;;5.45;;
5674;SDS011;2860;54.284;10.158;2023-07-13T03:50:00;7.43;;;6.32;;
5674;SDS011;2860;54.284;10.158;2023-07-13T03:52:26;7.07;;;6.28;;
5674;SDS011;2860;54.284;10.158;2023-07-13T03:54:51;7.25;;;6.28;;
5674;SDS011;2860;54.284;10.158;2023-07-13T03:57:17;9.05;;;6.80;;
5674;SDS011;2860;54.284;10.158;2023-07-13T03:59:43;6.47;;;5.72;;
5674;SDS011;2860;54.284;10.158;2023-07-13T04:02:09;6.43;;;5.90;;
5674;SDS011;2860;54.284;10.158;2023-07-13T04:04:35;8.50;;;6.70;;
5674;SDS011;2860;54.284;10.158;2023-07-13T04:07:00;7.43;;;6.78;;
5674;SDS011;2860;54.284;10.158;2023-07-13T04:09:26;8.10;;;6.75;;
5674;SDS011;2860;54.284;10.158;2023-07-13T04:11:52;7.68;;;6.88;;
5674;SDS011;2860;54.284;10.158;2023-07-13T04:14:17;9.45;;;7.05;;
5674;SDS011;2860;54.284;10.158;2023-07-13T04:16:43;10.38;;;6.43;;
5674;SDS011;2860;54.284;10.158;2023-07-13T04:19:09;7.60;;;7.00;;
5674;SDS011;2860;54.284;10.158;2023-07-13T04:21:35;9.25;;;6.72;;
5674;SDS011;2860;54.284;10.158;2023-07-13T04:24:01;7.07;;;6.55;;
5674;SDS011;2860;54.284;10.158;2023-07-13T04:26:27;8.25;;;7.63;;
5674;SDS011;2860;54.284;10.158;2023-07-13T04:28:53;6.53;;;5.70;;
5674;SDS011;2860;54.284;10.158;2023-07-13T04:31:20;18.83;;;6.78;;
5674;SDS011;2860;54.284;10.158;2023-07-13T04:33:46;9.52;;;7.25;;
5674;SDS011;2860;54.284;10.158;2023-07-13T04:36:12;7.82;;;6.32;;
5674;SDS011;2860;54.284;10.158;2023-07-13T04:38:37;11.32;;;6.20;;
5674;SDS011;2860;54.284;10.158;2023-07-13T04:41:04;7.50;;;6.82;;
5674;SDS011;2860;54.284;10.158;2023-07-13T04:43:31;8.82;;;5.95;;
5674;SDS011;2860;54.284;10.158;2023-07-13T04:46:02;6.90;;;5.25;;
5674;SDS011;2860;54.284;10.158;2023-07-13T04:48:29;10.13;;;6.13;;
5674;SDS011;2860;54.284;10.158;2023-07-13T04:50:55;6.88;;;6.20;;
5674;SDS011;2860;54.284;10.158;2023-07-13T04:53:22;6.13;;;5.65;;
5674;SDS011;2860;54.284;10.158;2023-07-13T04:55:47;8.60;;;5.28;;
5674;SDS011;2860;54.284;10.158;2023-07-13T04:58:13;6.80;;;5.60;;
5674;SDS011;2860;54.284;10.158;2023-07-13T05:00:39;8.07;;;5.93;;
5674;SDS011;2860;54.284;10.158;2023-07-13T05:03:04;7.32;;;5.72;;
5674;SDS011;2860;54.284;10.158;2023-07-13T05:05:30;4.88;;;4.50;;
5674;SDS011;2860;54.284;10.158;2023-07-13T05:07:56;3.55;;;3.25;;
5674;SDS011;2860;54.284;10.158;2023-07-13T05:10:21;6.70;;;2.95;;
5674;SDS011;2860;54.284;10.158;2023-07-13T05:12:47;4.55;;;2.60;;
5674;SDS011;2860;54.284;10.158;2023-07-13T05:15:13;5.70;;;3.08;;
5674;SDS011;2860;54.284;10.158;2023-07-13T05:17:39;5.20;;;2.20;;
5674;SDS011;2860;54.284;10.158;2023-07-13T05:20:05;3.35;;;2.85;;
5674;SDS011;2860;54.284;10.158;2023-07-13T05:22:32;4.43;;;2.47;;
5674;SDS011;2860;54.284;10.158;2023-07-13T05:25:00;2.45;;;2.25;;
5674;SDS011;2860;54.284;10.158;2023-07-13T05:27:29;2.83;;;2.60;;
5674;SDS011;2860;54.284;10.158;2023-07-13T05:29:55;7.10;;;3.08;;
5674;SDS011;2860;54.284;10.158;2023-07-13T05:32:21;5.03;;;2.42;;
5674;SDS011;2860;54.284;10.158;2023-07-13T05:34:46;3.47;;;2.63;;
5674;SDS011;2860;54.284;10.158;2023-07-13T05:37:12;7.47;;;2.38;;
5674;SDS011;2860;54.284;10.158;2023-07-13T05:39:37;4.20;;;2.28;;
5674;SDS011;2860;54.284;10.158;2023-07-13T05:42:03;3.50;;;2.78;;
5674;SDS011;2860;54.284;10.158;2023-07-13T05:44:29;4.20;;;2.80;;
5674;SDS011;2860;54.284;10.158;2023-07-13T05:46:55;3.20;;;3.00;;
5674;SDS011;2860;54.284;10.158;2023-07-13T05:49:21;5.40;;;3.95;;
5674;SDS011;2860;54.284;10.158;2023-07-13T05:51:47;4.63;;;3.20;;
5674;SDS011;2860;54.284;10.158;2023-07-13T05:54:13;3.30;;;3.10;;
5674;SDS011;2860;54.284;10.158;2023-07-13T05:56:38;4.53;;;3.67;;
5674;SDS011;2860;54.284;10.158;2023-07-13T05:59:04;4.20;;;2.97;;
5674;SDS011;2860;54.284;10.158;2023-07-13T06:01:29;5.30;;;3.42;;
5674;SDS011;2860;54.284;10.158;2023-07-13T06:03:56;7.47;;;3.33;;
5674;SDS011;2860;54.284;10.158;2023-07-13T06:06:21;8.65;;;3.97;;
5674;SDS011;2860;54.284;10.158;2023-07-13T06:08:47;6.53;;;3.83;;
5674;SDS011;2860;54.284;10.158;2023-07-13T06:11:17;12.68;;;3.33;;
5674;SDS011;2860;54.284;10.158;2023-07-13T06:13:47;8.07;;;3.15;;
5674;SDS011;2860;54.284;10.158;2023-07-13T06:16:13;8.43;;;3.88;;
5674;SDS011;2860;54.284;10.158;2023-07-13T06:18:40;5.40;;;4.93;;
5674;SDS011;2860;54.284;10.158;2023-07-13T06:21:07;8.52;;;4.15;;
5674;SDS011;2860;54.284;10.158;2023-07-13T06:23:32;15.75;;;5.82;;
5674;SDS011;2860;54.284;10.158;2023-07-13T06:25:58;5.45;;;3.90;;
5674;SDS011;2860;54.284;10.158;2023-07-13T06:28:24;6.53;;;4.00;;
5674;SDS011;2860;54.284;10.158;2023-07-13T06:30:49;6.00;;;4.05;;
5674;SDS011;2860;54.284;10.158;2023-07-13T06:33:15;7.70;;;4.10;;
5674;SDS011;2860;54.284;10.158;2023-07-13T06:35:41;6.38;;;3.15;;
5674;SDS011;2860;54.284;10.158;2023-07-13T06:38:07;5.18;;;3.22;;
5674;SDS011;2860;54.284;10.158;2023-07-13T06:40:32;6.70;;;3.45;;
5674;SDS011;2860;54.284;10.158;2023-07-13T06:42:58;11.27;;;4.00;;
5674;SDS011;2860;54.284;10.158;2023-07-13T06:45:23;11.85;;;4.22;;
5674;SDS011;2860;54.284;10.158;2023-07-13T06:47:49;3.63;;;3.33;;
5674;SDS011;2860;54.284;10.158;2023-07-13T06:50:15;6.72;;;3.67;;
5674;SDS011;2860;54.284;10.158;2023-07-13T06:52:40;8.60;;;3.08;;
5674;SDS011;2860;54.284;10.158;2023-07-13T06:55:06;2.67;;;2.47;;
5674;SDS011;2860;54.284;10.158;2023-07-13T06:57:32;8.43;;;3.15;;
5674;SDS011;2860;54.284;10.158;2023-07-13T06:59:57;8.02;;;3.60;;
5674;SDS011;2860;54.284;10.158;2023-07-13T07:02:23;7.65;;;3.15;;
5674;SDS011;2860;54.284;10.158;2023-07-13T07:04:48;3.10;;;2.40;;
5674;SDS011;2860;54.284;10.158;2023-07-13T07:07:15;5.28;;;2.97;;
5674;SDS011;2860;54.284;10.158;2023-07-13T07:09:40;6.68;;;2.83;;
5674;SDS011;2860;54.284;10.158;2023-07-13T07:12:06;5.00;;;2.58;;
5674;SDS011;2860;54.284;10.158;2023-07-13T07:14:32;5.47;;;2.22;;
5674;SDS011;2860;54.284;10.158;2023-07-13T07:16:59;12.32;;;2.78;;
5674;SDS011;2860;54.284;10.158;2023-07-13T07:19:25;6.97;;;2.78;;
5674;SDS011;2860;54.284;10.158;2023-07-13T07:21:50;8.40;;;3.10;;
5674;SDS011;2860;54.284;10.158;2023-07-13T07:24:16;6.88;;;2.25;;
5674;SDS011;2860;54.284;10.158;2023-07-13T07:26:41;5.93;;;3.10;;
5674;SDS011;2860;54.284;10.158;2023-07-13T07:29:07;5.70;;;2.45;;
5674;SDS011;2860;54.284;10.158;2023-07-13T07:31:32;5.63;;;2.65;;
5674;SDS011;2860;54.284;10.158;2023-07-13T07:33:58;3.10;;;2.08;;
5674;SDS011;2860;54.284;10.158;2023-07-13T07:36:23;8.73;;;3.08;;
5674;SDS011;2860;54.284;10.158;2023-07-13T07:38:49;8.30;;;2.60;;
5674;SDS011;2860;54.284;10.158;2023-07-13T07:41:15;5.80;;;2.08;;
5674;SDS011;2860;54.284;10.158;2023-07-13T07:43:40;6.93;;;2.42;;
5674;SDS011;2860;54.284;10.158;2023-07-13T07:46:06;7.20;;;3.03;;
5674;SDS011;2860;54.284;10.158;2023-07-13T07:48:31;3.67;;;1.80;;
5674;SDS011;2860;54.284;10.158;2023-07-13T07:50:57;8.90;;;2.60;;
5674;SDS011;2860;54.284;10.158;2023-07-13T07:53:23;4.20;;;2.22;;
5674;SDS011;2860;54.284;10.158;2023-07-13T07:55:48;3.92;;;1.75;;
5674;SDS011;2860;54.284;10.158;2023-07-13T07:58:14;4.68;;;1.67;;
5674;SDS011;2860;54.284;10.158;2023-07-13T08:00:40;3.90;;;1.75;;
5674;SDS011;2860;54.284;10.158;2023-07-13T08:03:05;4.55;;;1.55;;
5674;SDS011;2860;54.284;10.158;2023-07-13T08:05:31;3.75;;;1.75;;
5674;SDS011;2860;54.284;10.158;2023-07-13T08:07:56;4.63;;;2.05;;
5674;SDS011;2860;54.284;10.158;2023-07-13T08:10:22;2.35;;;2.15;;
5674;SDS011;2860;54.284;10.158;2023-07-13T08:12:47;6.03;;;1.38;;
5674;SDS011;2860;54.284;10.158;2023-07-13T08:15:14;5.03;;;2.03;;
5674;SDS011;2860;54.284;10.158;2023-07-13T08:17:40;4.43;;;2.00;;
5674;SDS011;2860;54.284;10.158;2023-07-13T08:20:06;4.25;;;1.95;;
5674;SDS011;2860;54.284;10.158;2023-07-13T08:22:34;3.15;;;1.60;;
5674;SDS011;2860;54.284;10.158;2023-07-13T08:25:00;1.50;;;1.40;;
5674;SDS011;2860;54.284;10.158;2023-07-13T08:27:26;6.40;;;1.60;;
5674;SDS011;2860;54.284;10.158;2023-07-13T08:29:53;4.32;;;1.65;;
5674;SDS011;2860;54.284;10.158;2023-07-13T08:32:19;1.50;;;1.05;;
5674;SDS011;2860;54.284;10.158;2023-07-13T08:34:46;6.65;;;1.52;;
5674;SDS011;2860;54.284;10.158;2023-07-13T08:37:12;6.22;;;2.33;;
5674;SDS011;2860;54.284;10.158;2023-07-13T08:39:37;3.45;;;1.38;;
5674;SDS011;2860;54.284;10.158;2023-07-13T08:42:12;6.40;;;2.05;;
5674;SDS011;2860;54.284;10.158;2023-07-13T08:45:21;6.47;;;2.70;;
5674;SDS011;2860;54.284;10.158;2023-07-13T08:47:52;2.40;;;1.10;;
5674;SDS011;2860;54.284;10.158;2023-07-13T08:50:23;4.43;;;1.77;;
5674;SDS011;2860;54.284;10.158;2023-07-13T08:52:52;2.17;;;1.65;;
5674;SDS011;2860;54.284;10.158;2023-07-13T08:55:37;1.63;;;1.45;;
5674;SDS011;2860;54.284;10.158;2023-07-13T08:58:14;2.05;;;1.13;;
5674;SDS011;2860;54.284;10.158;2023-07-13T09:00:56;5.05;;;1.73;;
5674;SDS011;2860;54.284;10.158;2023-07-13T09:03:31;3.25;;;1.75;;
5674;SDS011;2860;54.284;10.158;2023-07-13T09:06:06;2.95;;;1.98;;
5674;SDS011;2860;54.284;10.158;2023-07-13T09:11:31;6.65;;;1.70;;
5674;SDS011;2860;54.284;10.158;2023-07-13T09:16:46;1.42;;;1.33;;
5674;SDS011;2860;54.284;10.158;2023-07-13T09:19:16;2.28;;;1.58;;
5674;SDS011;2860;54.284;10.158;2023-07-13T09:21:48;2.83;;;1.80;;
5674;SDS011;2860;54.284;10.158;2023-07-13T09:24:28;3.65;;;1.58;;
5674;SDS011;2860;54.284;10.158;2023-07-13T09:27:18;5.85;;;1.60;;
5674;SDS011;2860;54.284;10.158;2023-07-13T09:29:57;4.22;;;2.17;;
5674;SDS011;2860;54.284;10.158;2023-07-13T09:32:50;1.80;;;1.73;;
5674;SDS011;2860;54.284;10.158;2023-07-13T09:35:21;2.80;;;2.00;;
5674;SDS011;2860;54.284;10.158;2023-07-13T09:37:56;2.50;;;2.28;;
5674;SDS011;2860;54.284;10.158;2023-07-13T09:40:37;3.67;;;1.67;;
5674;SDS011;2860;54.284;10.158;2023-07-13T09:43:10;2.33;;;2.08;;
5674;SDS011;2860;54.284;10.158;2023-07-13T09:45:39;4.55;;;2.40;;
5674;SDS011;2860;54.284;10.158;2023-07-13T09:48:15;3.60;;;1.77;;
5674;SDS011;2860;54.284;10.158;2023-07-13T09:50:42;3.20;;;2.88;;
5674;SDS011;2860;54.284;10.158;2023-07-13T09:53:13;3.15;;;2.15;;
5674;SDS011;2860;54.284;10.158;2023-07-13T09:55:44;2.67;;;2.20;;
5674;SDS011;2860;54.284;10.158;2023-07-13T09:58:17;2.20;;;2.10;;
5674;SDS011;2860;54.284;10.158;2023-07-13T10:00:53;4.75;;;2.40;;
5674;SDS011;2860;54.284;10.158;2023-07-13T10:03:25;3.58;;;2.10;;
5674;SDS011;2860;54.284;10.158;2023-07-13T10:06:01;2.10;;;1.77;;
5674;SDS011;2860;54.284;10.158;2023-07-13T10:08:41;2.67;;;2.00;;
5674;SDS011;2860;54.284;10.158;2023-07-13T10:11:10;3.90;;;1.90;;
5674;SDS011;2860;54.284;10.158;2023-07-13T10:13:40;5.68;;;1.70;;
5674;SDS011;2860;54.284;10.158;2023-07-13T10:16:09;3.65;;;1.90;;
5674;SDS011;2860;54.284;10.158;2023-07-13T10:18:39;1.52;;;1.38;;
5674;SDS011;2860;54.284;10.158;2023-07-13T10:21:14;1.60;;;1.38;;
5674;SDS011;2860;54.284;10.158;2023-07-13T10:23:43;3.13;;;1.45;;
5674;SDS011;2860;54.284;10.158;2023-07-13T10:26:15;1.75;;;1.65;;
5674;SDS011;2860;54.284;10.158;2023-07-13T10:28:45;1.67;;;1.40;;
5674;SDS011;2860;54.284;10.158;2023-07-13T10:31:16;3.33;;;2.08;;
5674;SDS011;2860;54.284;10.158;2023-07-13T10:33:43;1.20;;;1.10;;
5674;SDS011;2860;54.284;10.158;2023-07-13T10:36:13;2.40;;;1.58;;
5674;SDS011;2860;54.284;10.158;2023-07-13T10:38:47;1.08;;;0.90;;
5674;SDS011;2860;54.284;10.158;2023-07-13T10:41:17;0.95;;;0.90;;
5674;SDS011;2860;54.284;10.158;2023-07-13T10:43:46;0.90;;;0.90;;
5674;SDS011;2860;54.284;10.158;2023-07-13T10:46:16;0.60;;;0.60;;
5674;SDS011;2860;54.284;10.158;2023-07-13T10:48:44;3.47;;;0.77;;
5674;SDS011;2860;54.284;10.158;2023-07-13T10:51:14;0.85;;;0.60;;
5674;SDS011;2860;54.284;10.158;2023-07-13T10:53:42;0.60;;;0.60;;
5674;SDS011;2860;54.284;10.158;2023-07-13T10:56:29;0.70;;;0.70;;
5674;SDS011;2860;54.284;10.158;2023-07-13T11:04:17;0.50;;;0.50;;
5674;SDS011;2860;54.284;10.158;2023-07-13T11:06:46;0.82;;;0.70;;
5674;SDS011;2860;54.284;10.158;2023-07-13T11:11:59;7.57;;;0.57;;
5674;SDS011;2860;54.284;10.158;2023-07-13T11:14:37;8.90;;;2.10;;
5674;SDS011;2860;54.284;10.158;2023-07-13T11:20:03;1.05;;;0.40;;
5674;SDS011;2860;54.284;10.158;2023-07-13T11:27:52;1.02;;;0.43;;
5674;SDS011;2860;54.284;10.158;2023-07-13T11:30:48;0.68;;;0.68;;
5674;SDS011;2860;54.284;10.158;2023-07-13T11:33:25;0.65;;;0.60;;
5674;SDS011;2860;54.284;10.158;2023-07-13T11:39:02;2.40;;;0.65;;
5674;SDS011;2860;54.284;10.158;2023-07-13T11:41:49;1.27;;;0.70;;
5674;SDS011;2860;54.284;10.158;2023-07-13T11:44:17;2.60;;;1.00;;
5674;SDS011;2860;54.284;10.158;2023-07-13T11:46:51;1.50;;;0.80;;
5674;SDS011;2860;54.284;10.158;2023-07-13T11:49:19;1.75;;;0.75;;
5674;SDS011;2860;54.284;10.158;2023-07-13T11:51:46;1.08;;;0.63;;
5674;SDS011;2860;54.284;10.158;2023-07-13T11:54:31;2.40;;;0.85;;
5674;SDS011;2860;54.284;10.158;2023-07-13T11:57:01;0.82;;;0.82;;
5674;SDS011;2860;54.284;10.158;2023-07-13T11:59:31;1.58;;;0.60;;
5674;SDS011;2860;54.284;10.158;2023-07-13T12:01:58;1.60;;;0.50;;
5674;SDS011;2860;54.284;10.158;2023-07-13T12:04:31;3.28;;;1.50;;
5674;SDS011;2860;54.284;10.158;2023-07-13T12:07:05;0.90;;;0.75;;
5674;SDS011;2860;54.284;10.158;2023-07-13T12:09:34;1.05;;;0.63;;
5674;SDS011;2860;54.284;10.158;2023-07-13T12:12:01;4.30;;;0.90;;
5674;SDS011;2860;54.284;10.158;2023-07-13T12:14:27;1.58;;;0.60;;
5674;SDS011;2860;54.284;10.158;2023-07-13T12:16:53;0.88;;;0.82;;
5674;SDS011;2860;54.284;10.158;2023-07-13T12:19:23;0.98;;;0.63;;
5674;SDS011;2860;54.284;10.158;2023-07-13T12:21:52;0.73;;;0.60;;
5674;SDS011;2860;54.284;10.158;2023-07-13T12:24:21;3.15;;;0.65;;
5674;SDS011;2860;54.284;10.158;2023-07-13T12:26:54;1.05;;;0.80;;
5674;SDS011;2860;54.284;10.158;2023-07-13T12:29:26;1.42;;;0.60;;
5674;SDS011;2860;54.284;10.158;2023-07-13T12:31:51;5.82;;;0.40;;
5674;SDS011;2860;54.284;10.158;2023-07-13T12:34:18;0.45;;;0.45;;
5674;SDS011;2860;54.284;10.158;2023-07-13T12:41:46;1.42;;;0.80;;
5674;SDS011;2860;54.284;10.158;2023-07-13T12:44:14;0.80;;;0.80;;
5674;SDS011;2860;54.284;10.158;2023-07-13T12:46:58;1.77;;;0.60;;
5674;SDS011;2860;54.284;10.158;2023-07-13T12:49:30;1.10;;;0.80;;
5674;SDS011;2860;54.284;10.158;2023-07-13T12:52:01;2.47;;;0.82;;
5674;SDS011;2860;54.284;10.158;2023-07-13T12:54:29;1.83;;;0.55;;
5674;SDS011;2860;54.284;10.158;2023-07-13T12:56:56;2.85;;;0.50;;
5674;SDS011;2860;54.284;10.158;2023-07-13T12:59:23;6.03;;;0.60;;
5674;SDS011;2860;54.284;10.158;2023-07-13T13:01:53;0.77;;;0.47;;
5674;SDS011;2860;54.284;10.158;2023-07-13T13:04:18;2.55;;;1.75;;
5674;SDS011;2860;54.284;10.158;2023-07-13T13:06:46;1.48;;;0.50;;
5674;SDS011;2860;54.284;10.158;2023-07-13T13:09:16;0.88;;;0.40;;
5674;SDS011;2860;54.284;10.158;2023-07-13T13:11:45;1.75;;;0.40;;
5674;SDS011;2860;54.284;10.158;2023-07-13T13:14:10;0.82;;;0.45;;
5674;SDS011;2860;54.284;10.158;2023-07-13T13:16:37;0.93;;;0.50;;
5674;SDS011;2860;54.284;10.158;2023-07-13T13:19:17;0.80;;;0.60;;
5674;SDS011;2860;54.284;10.158;2023-07-13T13:21:46;2.20;;;0.50;;
5674;SDS011;2860;54.284;10.158;2023-07-13T13:24:12;3.15;;;0.70;;
5674;SDS011;2860;54.284;10.158;2023-07-13T13:26:40;1.20;;;0.75;;
5674;SDS011;2860;54.284;10.158;2023-07-13T13:29:13;1.55;;;0.55;;
5674;SDS011;2860;54.284;10.158;2023-07-13T13:31:41;1.83;;;0.60;;
5674;SDS011;2860;54.284;10.158;2023-07-13T13:34:08;1.10;;;0.60;;
5674;SDS011;2860;54.284;10.158;2023-07-13T13:36:35;4.50;;;0.60;;
5674;SDS011;2860;54.284;10.158;2023-07-13T13:39:01;1.15;;;0.50;;
5674;SDS011;2860;54.284;10.158;2023-07-13T13:41:29;0.90;;;0.50;;
5674;SDS011;2860;54.284;10.158;2023-07-13T13:43:55;2.05;;;0.88;;
5674;SDS011;2860;54.284;10.158;2023-07-13T13:46:22;1.75;;;0.70;;
5674;SDS011;2860;54.284;10.158;2023-07-13T13:48:50;0.70;;;0.70;;
5674;SDS011;2860;54.284;10.158;2023-07-13T13:51:20;2.15;;;0.52;;
5674;SDS011;2860;54.284;10.158;2023-07-13T13:53:47;1.00;;;0.70;;
5674;SDS011;2860;54.284;10.158;2023-07-13T13:56:13;2.13;;;0.50;;
5674;SDS011;2860;54.284;10.158;2023-07-13T13:58:40;1.85;;;0.80;;
5674;SDS011;2860;54.284;10.158;2023-07-13T14:01:11;0.40;;;0.40;;
5674;SDS011;2860;54.284;10.158;2023-07-13T14:03:39;0.55;;;0.55;;
5674;SDS011;2860;54.284;10.158;2023-07-13T14:06:05;1.75;;;0.85;;
5674;SDS011;2860;54.284;10.158;2023-07-13T14:08:30;1.17;;;0.50;;
5674;SDS011;2860;54.284;10.158;2023-07-13T14:10:57;3.63;;;0.90;;
5674;SDS011;2860;54.284;10.158;2023-07-13T14:13:27;1.15;;;0.70;;
5674;SDS011;2860;54.284;10.158;2023-07-13T14:15:55;0.52;;;0.50;;
5674;SDS011;2860;54.284;10.158;2023-07-13T14:18:21;3.03;;;0.50;;
5674;SDS011;2860;54.284;10.158;2023-07-13T14:20:47;3.13;;;0.65;;
5674;SDS011;2860;54.284;10.158;2023-07-13T14:23:14;3.13;;;0.60;;
5674;SDS011;2860;54.284;10.158;2023-07-13T14:25:40;2.25;;;0.85;;
5674;SDS011;2860;54.284;10.158;2023-07-13T14:28:26;1.52;;;0.82;;
5674;SDS011;2860;54.284;10.158;2023-07-13T14:30:52;2.17;;;0.60;;
5674;SDS011;2860;54.284;10.158;2023-07-13T14:33:19;1.23;;;0.63;;
5674;SDS011;2860;54.284;10.158;2023-07-13T14:35:45;2.58;;;0.90;;
5674;SDS011;2860;54.284;10.158;2023-07-13T14:38:16;4.15;;;0.70;;
5674;SDS011;2860;54.284;10.158;2023-07-13T14:40:44;2.97;;;0.77;;
5674;SDS011;2860;54.284;10.158;2023-07-13T14:43:11;4.15;;;0.70;;
5674;SDS011;2860;54.284;10.158;2023-07-13T14:45:41;1.73;;;1.00;;
5674;SDS011;2860;54.284;10.158;2023-07-13T14:48:13;3.42;;;1.40;;
5674;SDS011;2860;54.284;10.158;2023-07-13T14:50:44;2.25;;;0.60;;
5674;SDS011;2860;54.284;10.158;2023-07-13T14:53:11;1.88;;;0.75;;
5674;SDS011;2860;54.284;10.158;2023-07-13T14:55:37;2.67;;;0.90;;
5674;SDS011;2860;54.284;10.158;2023-07-13T14:58:03;1.05;;;0.65;;
5674;SDS011;2860;54.284;10.158;2023-07-13T15:00:29;2.92;;;0.73;;
5674;SDS011;2860;54.284;10.158;2023-07-13T15:02:56;1.77;;;0.60;;
5674;SDS011;2860;54.284;10.158;2023-07-13T15:05:25;3.80;;;0.90;;
5674;SDS011;2860;54.284;10.158;2023-07-13T15:07:52;2.28;;;0.60;;
5674;SDS011;2860;54.284;10.158;2023-07-13T15:10:19;0.38;;;0.38;;
5674;SDS011;2860;54.284;10.158;2023-07-13T15:12:47;2.33;;;0.70;;
5674;SDS011;2860;54.284;10.158;2023-07-13T15:15:13;4.28;;;0.80;;
5674;SDS011;2860;54.284;10.158;2023-07-13T15:17:40;2.20;;;0.73;;
5674;SDS011;2860;54.284;10.158;2023-07-13T15:22:48;4.57;;;0.70;;
5674;SDS011;2860;54.284;10.158;2023-07-13T15:25:20;2.35;;;0.65;;
5674;SDS011;2860;54.284;10.158;2023-07-13T15:27:49;2.30;;;0.60;;
5674;SDS011;2860;54.284;10.158;2023-07-13T15:30:15;3.22;;;0.60;;
5674;SDS011;2860;54.284;10.158;2023-07-13T15:32:41;0.75;;;0.45;;
5674;SDS011;2860;54.284;10.158;2023-07-13T15:35:18;2.60;;;0.63;;
5674;SDS011;2860;54.284;10.158;2023-07-13T15:37:45;2.63;;;0.60;;